sensor_id;sensor_type;location;lat;lon;timestamp;pressure;altitude;pressure_sealevel;temperature;humidity
50123;BME280;36021;48.670;6.184;2023-06-01T00:02:08;99138.72;;;19.96;100.00
50123;BME280;36021;48.670;6.184;2023-06-01T00:04:33;99143.25;;;20.00;100.00
50123;BME280;36021;48.670;6.184;2023-06-01T00:07:00;99143.25;;;20.00;100.00
50123;BME280;36021;48.670;6.184;2023-06-01T00:09:28;99150.38;;;19.98;100.00
50123;BME280;36021;48.670;6.184;2023-06-01T00:11:54;99138.03;;;19.99;100.00
50123;BME280;36021;48.670;6.184;2023-06-01T00:14:19;99148.25;;;20.07;100.00
50123;BME280;36021;48.670;6.184;2023-06-01T00:16:45;99141.72;;;20.03;99.94
50123;BME280;36021;48.670;6.184;2023-06-01T00:19:11;99141.31;;;20.16;99.71
50123;BME280;36021;48.670;6.184;2023-06-01T00:21:37;99149.56;;;19.97;100.00
50123;BME280;36021;48.670;6.184;2023-06-01T00:24:04;99149.72;;;19.76;100.00
50123;BME280;36021;48.670;6.184;2023-06-01T00:26:29;99145.78;;;19.65;100.00
50123;BME280;36021;48.670;6.184;2023-06-01T00:28:59;99148.09;;;19.63;100.00
50123;BME280;36021;48.670;6.184;2023-06-01T00:31:26;99147.09;;;19.56;100.00
50123;BME280;36021;48.670;6.184;2023-06-01T00:33:53;99145.31;;;19.63;100.00
50123;BME280;36021;48.670;6.184;2023-06-01T00:36:19;99154.63;;;19.67;100.00
50123;BME280;36021;48.670;6.184;2023-06-01T00:38:45;99151.34;;;19.77;100.00
50123;BME280;36021;48.670;6.184;2023-06-01T00:41:11;99143.19;;;19.85;100.00
50123;BME280;36021;48.670;6.184;2023-06-01T00:43:36;99148.41;;;19.86;100.00
50123;BME280;36021;48.670;6.184;2023-06-01T00:46:02;99144.09;;;19.89;100.00
50123;BME280;36021;48.670;6.184;2023-06-01T00:48:28;99141.31;;;19.76;100.00
50123;BME280;36021;48.670;6.184;2023-06-01T00:50:54;99140.66;;;19.67;100.00
50123;BME280;36021;48.670;6.184;2023-06-01T00:53:20;99146.03;;;19.48;100.00
50123;BME280;36021;48.670;6.184;2023-06-01T00:55:46;99138.06;;;19.38;100.00
50123;BME280;36021;48.670;6.184;2023-06-01T00:58:15;99143.44;;;19.31;100.00
50123;BME280;36021;48.670;6.184;2023-06-01T01:00:41;99132.00;;;19.24;100.00
50123;BME280;36021;48.670;6.184;2023-06-01T01:03:08;99134.59;;;19.29;100.00
50123;BME280;36021;48.670;6.184;2023-06-01T01:05:35;99133.66;;;19.37;100.00
50123;BME280;36021;48.670;6.184;2023-06-01T01:08:13;99137.19;;;19.46;100.00
50123;BME280;36021;48.670;6.184;2023-06-01T01:10:50;99140.22;;;19.53;100.00
50123;BME280;36021;48.670;6.184;2023-06-01T01:13:31;99138.69;;;19.56;100.00
50123;BME280;36021;48.670;6.184;2023-06-01T01:16:06;99136.91;;;19.63;100.00
50123;BME280;36021;48.670;6.184;2023-06-01T01:18:51;99133.22;;;19.59;100.00
50123;BME280;36021;48.670;6.184;2023-06-01T01:21:30;99132.16;;;19.52;100.00
50123;BME280;36021;48.670;6.184;2023-06-01T01:24:26;99130.63;;;19.54;100.00
50123;BME280;36021;48.670;6.184;2023-06-01T01:27:06;99134.59;;;19.29;100.00
50123;BME280;36021;48.670;6.184;2023-06-01T01:29:37;99130.16;;;19.28;100.00
50123;BME280;36021;48.670;6.184;2023-06-01T01:32:05;99136.22;;;19.18;100.00
50123;BME280;36021;48.670;6.184;2023-06-01T01:34:31;99132.50;;;19.26;100.00
50123;BME280;36021;48.670;6.184;2023-06-01T01:36:58;99133.78;;;19.29;100.00
50123;BME280;36021;48.670;6.184;2023-06-01T01:39:24;99133.44;;;19.30;100.00
50123;BME280;36021;48.670;6.184;2023-06-01T01:41:50;99128.41;;;19.36;100.00
50123;BME280;36021;48.670;6.184;2023-06-01T01:44:17;99132.38;;;19.35;100.00
50123;BME280;36021;48.670;6.184;2023-06-01T01:49:28;99132.72;;;19.21;100.00
50123;BME280;36021;48.670;6.184;2023-06-01T01:52:25;99132.59;;;19.17;100.00
50123;BME280;36021;48.670;6.184;2023-06-01T01:54:52;99129.59;;;19.22;100.00
50123;BME280;36021;48.670;6.184;2023-06-01T01:57:19;99137.59;;;19.24;100.00
50123;BME280;36021;48.670;6.184;2023-06-01T01:59:47;99133.19;;;19.23;100.00
50123;BME280;36021;48.670;6.184;2023-06-01T02:02:13;99123.63;;;19.24;100.00
50123;BME280;36021;48.670;6.184;2023-06-01T02:04:43;99125.53;;;19.20;100.00
50123;BME280;36021;48.670;6.184;2023-06-01T02:07:11;99129.91;;;19.21;100.00
50123;BME280;36021;48.670;6.184;2023-06-01T02:09:38;99126.56;;;19.15;100.00
50123;BME280;36021;48.670;6.184;2023-06-01T02:12:05;99130.41;;;19.23;100.00
50123;BME280;36021;48.670;6.184;2023-06-01T02:14:33;99142.53;;;19.27;100.00
50123;BME280;36021;48.670;6.184;2023-06-01T02:16:58;99136.94;;;19.27;100.00
50123;BME280;36021;48.670;6.184;2023-06-01T02:19:29;99141.09;;;19.21;100.00
50123;BME280;36021;48.670;6.184;2023-06-01T02:21:55;99139.50;;;19.20;100.00
50123;BME280;36021;48.670;6.184;2023-06-01T02:24:21;99141.09;;;19.09;100.00
50123;BME280;36021;48.670;6.184;2023-06-01T02:26:47;99145.78;;;19.17;100.00
50123;BME280;36021;48.670;6.184;2023-06-01T02:29:20;99135.50;;;19.21;100.00
50123;BME280;36021;48.670;6.184;2023-06-01T02:31:48;99126.22;;;19.17;100.00
50123;BME280;36021;48.670;6.184;2023-06-01T02:34:15;99126.69;;;19.07;100.00
50123;BME280;36021;48.670;6.184;2023-06-01T02:36:41;99117.09;;;19.08;100.00
50123;BME280;36021;48.670;6.184;2023-06-01T02:39:07;99126.19;;;19.05;100.00
50123;BME280;36021;48.670;6.184;2023-06-01T02:41:33;99125.75;;;19.03;100.00
50123;BME280;36021;48.670;6.184;2023-06-01T02:43:59;99132.25;;;19.07;100.00
50123;BME280;36021;48.670;6.184;2023-06-01T02:46:26;99128.66;;;19.06;100.00
50123;BME280;36021;48.670;6.184;2023-06-01T02:48:52;99137.16;;;19.10;100.00
50123;BME280;36021;48.670;6.184;2023-06-01T02:51:18;99121.78;;;19.04;100.00
50123;BME280;36021;48.670;6.184;2023-06-01T02:53:47;99133.88;;;19.08;100.00
50123;BME280;36021;48.670;6.184;2023-06-01T02:56:13;99122.25;;;18.94;100.00
50123;BME280;36021;48.670;6.184;2023-06-01T02:58:43;99124.56;;;18.92;100.00
50123;BME280;36021;48.670;6.184;2023-06-01T03:01:23;99126.19;;;18.93;100.00
50123;BME280;36021;48.670;6.184;2023-06-01T03:03:50;99127.13;;;18.97;100.00
50123;BME280;36021;48.670;6.184;2023-06-01T03:06:20;99128.88;;;19.01;100.00
50123;BME280;36021;48.670;6.184;2023-06-01T03:08:55;99128.97;;;18.93;100.00
50123;BME280;36021;48.670;6.184;2023-06-01T03:11:56;99134.31;;;18.98;100.00
50123;BME280;36021;48.670;6.184;2023-06-01T03:14:21;99131.53;;;18.86;100.00
50123;BME280;36021;48.670;6.184;2023-06-01T03:16:47;99130.38;;;18.87;100.00
50123;BME280;36021;48.670;6.184;2023-06-01T03:19:23;99122.44;;;18.77;100.00
50123;BME280;36021;48.670;6.184;2023-06-01T03:21:52;99123.84;;;18.70;100.00
50123;BME280;36021;48.670;6.184;2023-06-01T03:24:20;99124.72;;;18.50;100.00
50123;BME280;36021;48.670;6.184;2023-06-01T03:26:46;99131.78;;;18.48;100.00
50123;BME280;36021;48.670;6.184;2023-06-01T03:29:12;99135.72;;;18.47;100.00
50123;BME280;36021;48.670;6.184;2023-06-01T03:31:39;99137.00;;;18.49;100.00
50123;BME280;36021;48.670;6.184;2023-06-01T03:34:07;99135.19;;;18.33;100.00
50123;BME280;36021;48.670;6.184;2023-06-01T03:36:32;99138.47;;;18.35;100.00
50123;BME280;36021;48.670;6.184;2023-06-01T03:38:59;99136.00;;;18.33;100.00
50123;BME280;36021;48.670;6.184;2023-06-01T03:41:26;99132.88;;;18.35;100.00
50123;BME280;36021;48.670;6.184;2023-06-01T03:43:52;99137.06;;;18.29;100.00
50123;BME280;36021;48.670;6.184;2023-06-01T03:46:17;99138.34;;;18.31;100.00
50123;BME280;36021;48.670;6.184;2023-06-01T03:48:43;99137.53;;;18.31;100.00
50123;BME280;36021;48.670;6.184;2023-06-01T03:51:09;99142.94;;;18.15;100.00
50123;BME280;36021;48.670;6.184;2023-06-01T03:53:35;99133.97;;;18.09;100.00
50123;BME280;36021;48.670;6.184;2023-06-01T03:56:02;99142.88;;;18.03;100.00
50123;BME280;36021;48.670;6.184;2023-06-01T03:58:30;99142.38;;;18.01;100.00
50123;BME280;36021;48.670;6.184;2023-06-01T04:00:57;99142.09;;;17.94;100.00
50123;BME280;36021;48.670;6.184;2023-06-01T04:03:24;99148.44;;;18.03;100.00
50123;BME280;36021;48.670;6.184;2023-06-01T04:05:51;99147.91;;;18.09;100.00
50123;BME280;36021;48.670;6.184;2023-06-01T04:08:25;99147.41;;;18.07;100.00
50123;BME280;36021;48.670;6.184;2023-06-01T04:10:52;99151.97;;;18.12;100.00
50123;BME280;36021;48.670;6.184;2023-06-01T04:13:18;99158.25;;;18.09;100.00
50123;BME280;36021;48.670;6.184;2023-06-01T04:15:45;99150.59;;;17.97;100.00
50123;BME280;36021;48.670;6.184;2023-06-01T04:18:11;99149.31;;;17.95;100.00
50123;BME280;36021;48.670;6.184;2023-06-01T04:20:48;99154.50;;;17.84;100.00
50123;BME280;36021;48.670;6.184;2023-06-01T04:23:15;99154.91;;;17.95;100.00
50123;BME280;36021;48.670;6.184;2023-06-01T04:25:41;99156.81;;;18.03;100.00
50123;BME280;36021;48.670;6.184;2023-06-01T04:28:10;99161.22;;;18.04;100.00
50123;BME280;36021;48.670;6.184;2023-06-01T04:30:37;99161.97;;;18.13;100.00
50123;BME280;36021;48.670;6.184;2023-06-01T04:33:04;99166.19;;;18.19;100.00
50123;BME280;36021;48.670;6.184;2023-06-01T04:35:32;99166.66;;;18.21;100.00
50123;BME280;36021;48.670;6.184;2023-06-01T04:37:58;99169.91;;;18.23;100.00
50123;BME280;36021;48.670;6.184;2023-06-01T04:40:26;99168.03;;;18.15;100.00
50123;BME280;36021;48.670;6.184;2023-06-01T04:42:52;99174.06;;;18.17;100.00
50123;BME280;36021;48.670;6.184;2023-06-01T04:45:21;99175.84;;;18.21;100.00
50123;BME280;36021;48.670;6.184;2023-06-01T04:47:47;99179.53;;;18.13;100.00
50123;BME280;36021;48.670;6.184;2023-06-01T04:50:30;99172.72;;;18.23;100.00
50123;BME280;36021;48.670;6.184;2023-06-01T04:52:56;99168.75;;;18.24;100.00
50123;BME280;36021;48.670;6.184;2023-06-01T04:55:21;99172.78;;;18.35;100.00
50123;BME280;36021;48.670;6.184;2023-06-01T04:57:48;99175.63;;;18.47;100.00
50123;BME280;36021;48.670;6.184;2023-06-01T05:00:14;99175.63;;;18.47;100.00
50123;BME280;36021;48.670;6.184;2023-06-01T05:02:45;99168.69;;;18.53;100.00
50123;BME280;36021;48.670;6.184;2023-06-01T05:05:14;99177.41;;;18.52;100.00
50123;BME280;36021;48.670;6.184;2023-06-01T05:07:41;99176.59;;;18.51;100.00
50123;BME280;36021;48.670;6.184;2023-06-01T05:10:09;99168.13;;;18.60;100.00
50123;BME280;36021;48.670;6.184;2023-06-01T05:12:43;99179.22;;;18.48;100.00
50123;BME280;36021;48.670;6.184;2023-06-01T05:15:10;99175.59;;;18.68;100.00
50123;BME280;36021;48.670;6.184;2023-06-01T05:17:37;99172.03;;;18.80;100.00
50123;BME280;36021;48.670;6.184;2023-06-01T05:20:09;99173.78;;;18.84;100.00
50123;BME280;36021;48.670;6.184;2023-06-01T05:22:38;99175.78;;;18.96;100.00
50123;BME280;36021;48.670;6.184;2023-06-01T05:25:04;99173.34;;;18.94;100.00
50123;BME280;36021;48.670;6.184;2023-06-01T05:27:33;99182.31;;;19.00;100.00
50123;BME280;36021;48.670;6.184;2023-06-01T05:29:59;99176.00;;;18.91;100.00
50123;BME280;36021;48.670;6.184;2023-06-01T05:32:25;99176.22;;;18.98;100.00
50123;BME280;36021;48.670;6.184;2023-06-01T05:34:55;99180.78;;;19.02;100.00
50123;BME280;36021;48.670;6.184;2023-06-01T05:37:22;99181.16;;;19.01;100.00
50123;BME280;36021;48.670;6.184;2023-06-01T05:39:47;99178.13;;;19.18;100.00
50123;BME280;36021;48.670;6.184;2023-06-01T05:42:14;99185.22;;;19.15;100.00
50123;BME280;36021;48.670;6.184;2023-06-01T05:44:39;99181.66;;;19.27;100.00
50123;BME280;36021;48.670;6.184;2023-06-01T05:47:05;99175.56;;;19.37;100.00
50123;BME280;36021;48.670;6.184;2023-06-01T05:49:31;99178.28;;;19.34;100.00
50123;BME280;36021;48.670;6.184;2023-06-01T05:51:58;99177.09;;;19.35;100.00
50123;BME280;36021;48.670;6.184;2023-06-01T05:54:25;99183.06;;;19.45;100.00
50123;BME280;36021;48.670;6.184;2023-06-01T05:56:51;99180.25;;;19.57;100.00
50123;BME280;36021;48.670;6.184;2023-06-01T05:59:19;99172.59;;;19.42;100.00
50123;BME280;36021;48.670;6.184;2023-06-01T06:01:45;99181.66;;;19.51;100.00
50123;BME280;36021;48.670;6.184;2023-06-01T06:04:12;99184.38;;;19.60;100.00
50123;BME280;36021;48.670;6.184;2023-06-01T06:06:37;99181.66;;;19.63;100.00
50123;BME280;36021;48.670;6.184;2023-06-01T06:09:04;99184.72;;;19.46;100.00
50123;BME280;36021;48.670;6.184;2023-06-01T06:11:30;99187.03;;;19.56;100.00
50123;BME280;36021;48.670;6.184;2023-06-01T06:13:56;99191.09;;;19.71;100.00
50123;BME280;36021;48.670;6.184;2023-06-01T06:16:22;99189.56;;;19.73;100.00
50123;BME280;36021;48.670;6.184;2023-06-01T06:18:48;99183.97;;;19.73;100.00
50123;BME280;36021;48.670;6.184;2023-06-01T06:21:14;99182.59;;;19.80;100.00
50123;BME280;36021;48.670;6.184;2023-06-01T06:23:40;99187.00;;;19.81;100.00
50123;BME280;36021;48.670;6.184;2023-06-01T06:26:06;99191.19;;;19.87;100.00
50123;BME280;36021;48.670;6.184;2023-06-01T06:28:33;99191.06;;;19.95;100.00
50123;BME280;36021;48.670;6.184;2023-06-01T06:31:00;99189.78;;;20.05;100.00
50123;BME280;36021;48.670;6.184;2023-06-01T06:33:27;99191.38;;;20.06;100.00
50123;BME280;36021;48.670;6.184;2023-06-01T06:35:53;99191.84;;;20.08;100.00
50123;BME280;36021;48.670;6.184;2023-06-01T06:38:19;99192.19;;;20.18;100.00
50123;BME280;36021;48.670;6.184;2023-06-01T06:40:45;99184.22;;;20.33;100.00
50123;BME280;36021;48.670;6.184;2023-06-01T06:43:11;99184.22;;;20.33;100.00
50123;BME280;36021;48.670;6.184;2023-06-01T06:45:39;99180.56;;;20.44;100.00
50123;BME280;36021;48.670;6.184;2023-06-01T06:48:05;99181.50;;;20.48;100.00
50123;BME280;36021;48.670;6.184;2023-06-01T06:50:30;99185.69;;;20.54;100.00
50123;BME280;36021;48.670;6.184;2023-06-01T06:52:56;99186.56;;;20.58;100.00
50123;BME280;36021;48.670;6.184;2023-06-01T06:55:22;99186.78;;;20.65;100.00
50123;BME280;36021;48.670;6.184;2023-06-01T06:57:49;99188.00;;;20.52;100.00
50123;BME280;36021;48.670;6.184;2023-06-01T07:00:16;99195.66;;;20.67;100.00
50123;BME280;36021;48.670;6.184;2023-06-01T07:02:43;99195.94;;;20.78;100.00
50123;BME280;36021;48.670;6.184;2023-06-01T07:05:10;99195.59;;;20.79;100.00
50123;BME280;36021;48.670;6.184;2023-06-01T07:07:37;99188.09;;;20.84;100.00
50123;BME280;36021;48.670;6.184;2023-06-01T07:10:05;99191.97;;;20.95;100.00
50123;BME280;36021;48.670;6.184;2023-06-01T07:12:31;99192.69;;;20.92;100.00
50123;BME280;36021;48.670;6.184;2023-06-01T07:14:57;99192.56;;;21.00;100.00
50123;BME280;36021;48.670;6.184;2023-06-01T07:17:22;99190.72;;;21.08;100.00
50123;BME280;36021;48.670;6.184;2023-06-01T07:19:49;99190.13;;;21.14;100.00
50123;BME280;36021;48.670;6.184;2023-06-01T07:22:15;99193.75;;;21.15;100.00
50123;BME280;36021;48.670;6.184;2023-06-01T07:24:43;99194.56;;;21.15;100.00
50123;BME280;36021;48.670;6.184;2023-06-01T07:27:10;99195.13;;;21.21;100.00
50123;BME280;36021;48.670;6.184;2023-06-01T07:29:38;99187.81;;;21.32;100.00
50123;BME280;36021;48.670;6.184;2023-06-01T07:32:05;99192.41;;;21.40;100.00
50123;BME280;36021;48.670;6.184;2023-06-01T07:34:32;99199.47;;;21.50;100.00
50123;BME280;36021;48.670;6.184;2023-06-01T07:37:01;99189.69;;;21.59;100.00
50123;BME280;36021;48.670;6.184;2023-06-01T07:39:26;99194.56;;;21.62;100.00
50123;BME280;36021;48.670;6.184;2023-06-01T07:41:53;99188.22;;;21.65;100.00
50123;BME280;36021;48.670;6.184;2023-06-01T07:44:20;99191.03;;;21.65;100.00
50123;BME280;36021;48.670;6.184;2023-06-01T07:46:46;99182.78;;;21.72;100.00
50123;BME280;36021;48.670;6.184;2023-06-01T07:49:13;99188.56;;;21.79;100.00
50123;BME280;36021;48.670;6.184;2023-06-01T07:51:40;99187.38;;;21.80;100.00
50123;BME280;36021;48.670;6.184;2023-06-01T07:54:06;99186.84;;;21.91;100.00
50123;BME280;36021;48.670;6.184;2023-06-01T07:56:32;99189.00;;;21.97;100.00
50123;BME280;36021;48.670;6.184;2023-06-01T07:58:58;99193.06;;;22.00;100.00
50123;BME280;36021;48.670;6.184;2023-06-01T08:01:24;99183.91;;;22.03;100.00
50123;BME280;36021;48.670;6.184;2023-06-01T08:03:51;99188.13;;;22.12;100.00
50123;BME280;36021;48.670;6.184;2023-06-01T08:06:18;99190.00;;;22.24;100.00
50123;BME280;36021;48.670;6.184;2023-06-01T08:08:49;99183.34;;;22.13;100.00
50123;BME280;36021;48.670;6.184;2023-06-01T08:11:16;99188.13;;;22.12;100.00
50123;BME280;36021;48.670;6.184;2023-06-01T08:13:42;99177.97;;;22.23;100.00
50123;BME280;36021;48.670;6.184;2023-06-01T08:16:11;99191.69;;;22.28;100.00
50123;BME280;36021;48.670;6.184;2023-06-01T08:18:38;99178.19;;;22.34;100.00
50123;BME280;36021;48.670;6.184;2023-06-01T08:21:06;99182.03;;;22.26;100.00
50123;BME280;36021;48.670;6.184;2023-06-01T08:23:34;99171.91;;;22.41;100.00
50123;BME280;36021;48.670;6.184;2023-06-01T08:26:01;99181.44;;;22.36;100.00
50123;BME280;36021;48.670;6.184;2023-06-01T08:28:26;99165.16;;;22.45;100.00
50123;BME280;36021;48.670;6.184;2023-06-01T08:30:54;99165.31;;;22.52;100.00
50123;BME280;36021;48.670;6.184;2023-06-01T08:33:20;99171.97;;;22.63;100.00
50123;BME280;36021;48.670;6.184;2023-06-01T08:35:47;99169.03;;;22.75;100.00
50123;BME280;36021;48.670;6.184;2023-06-01T08:38:12;99167.25;;;22.87;100.00
50123;BME280;36021;48.670;6.184;2023-06-01T08:40:38;99167.38;;;22.94;100.00
50123;BME280;36021;48.670;6.184;2023-06-01T08:43:19;99172.25;;;22.97;100.00
50123;BME280;36021;48.670;6.184;2023-06-01T08:45:46;99163.91;;;23.04;100.00
50123;BME280;36021;48.670;6.184;2023-06-01T08:48:16;99160.50;;;23.14;100.00
50123;BME280;36021;48.670;6.184;2023-06-01T08:50:44;99161.44;;;23.21;100.00
50123;BME280;36021;48.670;6.184;2023-06-01T08:53:12;99165.13;;;23.25;100.00
50123;BME280;36021;48.670;6.184;2023-06-01T08:55:38;99164.88;;;23.34;100.00
50123;BME280;36021;48.670;6.184;2023-06-01T08:58:05;99171.38;;;23.38;100.00
50123;BME280;36021;48.670;6.184;2023-06-01T09:00:31;99168.25;;;23.43;100.00
50123;BME280;36021;48.670;6.184;2023-06-01T09:02:58;99167.19;;;23.51;100.00
50123;BME280;36021;48.670;6.184;2023-06-01T09:05:24;99164.81;;;23.53;100.00
50123;BME280;36021;48.670;6.184;2023-06-01T09:07:53;99167.63;;;23.53;100.00
50123;BME280;36021;48.670;6.184;2023-06-01T09:10:24;99158.13;;;23.61;100.00
50123;BME280;36021;48.670;6.184;2023-06-01T09:12:54;99163.28;;;23.59;100.00
50123;BME280;36021;48.670;6.184;2023-06-01T09:15:21;99163.47;;;23.70;100.00
50123;BME280;36021;48.670;6.184;2023-06-01T09:17:48;99159.19;;;23.79;100.00
50123;BME280;36021;48.670;6.184;2023-06-01T09:20:26;99153.25;;;23.84;100.00
50123;BME280;36021;48.670;6.184;2023-06-01T09:22:54;99159.41;;;23.94;100.00
50123;BME280;36021;48.670;6.184;2023-06-01T09:25:24;99159.16;;;24.06;100.00
50123;BME280;36021;48.670;6.184;2023-06-01T09:27:53;99160.03;;;24.10;100.00
50123;BME280;36021;48.670;6.184;2023-06-01T09:30:21;99154.94;;;24.19;100.00
50123;BME280;36021;48.670;6.184;2023-06-01T09:32:49;99148.59;;;24.25;100.00
50123;BME280;36021;48.670;6.184;2023-06-01T09:35:36;99149.09;;;24.31;100.00
50123;BME280;36021;48.670;6.184;2023-06-01T09:38:03;99151.22;;;24.41;100.00
50123;BME280;36021;48.670;6.184;2023-06-01T09:40:31;99130.38;;;24.49;100.00
50123;BME280;36021;48.670;6.184;2023-06-01T09:42:58;99132.09;;;24.57;100.00
50123;BME280;36021;48.670;6.184;2023-06-01T09:45:24;99130.97;;;24.65;100.00
50123;BME280;36021;48.670;6.184;2023-06-01T09:47:51;99131.91;;;24.76;100.00
50123;BME280;36021;48.670;6.184;2023-06-01T09:50:35;99123.16;;;24.85;100.00
50123;BME280;36021;48.670;6.184;2023-06-01T09:53:02;99119.22;;;24.93;100.00
50123;BME280;36021;48.670;6.184;2023-06-01T09:55:28;99125.31;;;24.99;100.00
50123;BME280;36021;48.670;6.184;2023-06-01T09:58:20;99117.38;;;25.11;100.00
50123;BME280;36021;48.670;6.184;2023-06-01T10:00:48;99119.41;;;25.14;100.00
50123;BME280;36021;48.670;6.184;2023-06-01T10:03:15;99120.28;;;25.22;100.00
50123;BME280;36021;48.670;6.184;2023-06-01T10:05:42;99124.84;;;25.37;91.48
50123;BME280;36021;48.670;6.184;2023-06-01T10:08:12;99130.56;;;25.48;78.50
50123;BME280;36021;48.670;6.184;2023-06-01T10:10:41;99120.97;;;25.52;74.35
50123;BME280;36021;48.670;6.184;2023-06-01T10:13:08;99111.31;;;25.57;77.22
50123;BME280;36021;48.670;6.184;2023-06-01T10:15:33;99113.81;;;25.65;81.58
50123;BME280;36021;48.670;6.184;2023-06-01T10:18:02;99107.38;;;25.75;76.24
50123;BME280;36021;48.670;6.184;2023-06-01T10:20:29;99105.06;;;25.88;71.33
50123;BME280;36021;48.670;6.184;2023-06-01T10:22:59;99107.13;;;25.98;77.46
50123;BME280;36021;48.670;6.184;2023-06-01T10:25:29;99111.94;;;25.90;76.79
50123;BME280;36021;48.670;6.184;2023-06-01T10:27:59;99103.91;;;26.00;74.82
50123;BME280;36021;48.670;6.184;2023-06-01T10:30:26;99104.34;;;26.09;65.97
50123;BME280;36021;48.670;6.184;2023-06-01T10:32:53;99097.56;;;26.17;65.83
50123;BME280;36021;48.670;6.184;2023-06-01T10:40:34;99086.34;;;26.38;53.67
50123;BME280;36021;48.670;6.184;2023-06-01T10:42:59;99086.78;;;26.47;54.31
50123;BME280;36021;48.670;6.184;2023-06-01T10:48:09;99084.78;;;26.58;48.86
50123;BME280;36021;48.670;6.184;2023-06-01T10:50:37;99089.25;;;26.73;44.11
50123;BME280;36021;48.670;6.184;2023-06-01T10:53:29;99084.84;;;26.79;40.97
50123;BME280;36021;48.670;6.184;2023-06-01T10:56:26;99088.13;;;26.88;41.11
50123;BME280;36021;48.670;6.184;2023-06-01T11:01:38;99075.97;;;26.88;44.35
50123;BME280;36021;48.670;6.184;2023-06-01T11:04:05;99069.13;;;26.96;46.83
50123;BME280;36021;48.670;6.184;2023-06-01T11:06:33;99073.56;;;27.08;49.98
50123;BME280;36021;48.670;6.184;2023-06-01T11:09:02;99081.25;;;27.21;51.90
50123;BME280;36021;48.670;6.184;2023-06-01T11:14:17;99067.50;;;27.27;47.55
50123;BME280;36021;48.670;6.184;2023-06-01T11:16:44;99073.97;;;27.38;48.59
50123;BME280;36021;48.670;6.184;2023-06-01T11:19:22;99065.09;;;27.50;48.41
50123;BME280;36021;48.670;6.184;2023-06-01T11:21:59;99067.09;;;27.46;44.94
50123;BME280;36021;48.670;6.184;2023-06-01T11:24:33;99064.25;;;27.53;44.86
50123;BME280;36021;48.670;6.184;2023-06-01T11:27:08;99053.75;;;27.11;43.88
50123;BME280;36021;48.670;6.184;2023-06-01T11:29:34;99065.09;;;27.29;46.25
50123;BME280;36021;48.670;6.184;2023-06-01T11:32:02;99057.41;;;27.47;45.92
50123;BME280;36021;48.670;6.184;2023-06-01T11:34:36;99064.25;;;27.60;43.89
50123;BME280;36021;48.670;6.184;2023-06-01T11:37:06;99060.16;;;27.72;43.87
50123;BME280;36021;48.670;6.184;2023-06-01T11:39:32;99057.34;;;27.68;43.25
50123;BME280;36021;48.670;6.184;2023-06-01T11:44:42;99052.84;;;27.81;41.88
50123;BME280;36021;48.670;6.184;2023-06-01T11:47:09;99048.44;;;27.80;42.63
50123;BME280;36021;48.670;6.184;2023-06-01T11:49:49;99052.00;;;27.99;42.32
50123;BME280;36021;48.670;6.184;2023-06-01T11:52:16;99044.31;;;28.10;40.83
50123;BME280;36021;48.670;6.184;2023-06-01T11:54:42;99045.47;;;28.16;40.93
50123;BME280;36021;48.670;6.184;2023-06-01T11:57:09;99046.25;;;28.23;39.80
50123;BME280;36021;48.670;6.184;2023-06-01T11:59:44;99045.47;;;28.23;39.45
50123;BME280;36021;48.670;6.184;2023-06-01T12:02:26;99042.59;;;28.30;39.05
50123;BME280;36021;48.670;6.184;2023-06-01T12:05:06;99035.59;;;28.45;39.86
50123;BME280;36021;48.670;6.184;2023-06-01T12:07:51;99033.56;;;28.49;40.01
50123;BME280;36021;48.670;6.184;2023-06-01T12:10:21;99027.78;;;28.63;40.62
50123;BME280;36021;48.670;6.184;2023-06-01T12:12:47;99027.78;;;28.63;39.72
50123;BME280;36021;48.670;6.184;2023-06-01T12:15:14;99019.28;;;28.67;39.03
50123;BME280;36021;48.670;6.184;2023-06-01T12:17:56;99016.84;;;28.69;38.86
50123;BME280;36021;48.670;6.184;2023-06-01T12:20:43;99017.69;;;28.62;37.36
50123;BME280;36021;48.670;6.184;2023-06-01T12:23:16;99017.69;;;28.66;36.61
50123;BME280;36021;48.670;6.184;2023-06-01T12:28:18;99009.56;;;28.68;36.50
50123;BME280;36021;48.670;6.184;2023-06-01T12:30:45;99015.94;;;28.82;37.96
50123;BME280;36021;48.670;6.184;2023-06-01T12:33:42;99021.88;;;28.99;37.93
50123;BME280;36021;48.670;6.184;2023-06-01T12:36:09;99022.16;;;29.15;37.57
50123;BME280;36021;48.670;6.184;2023-06-01T12:38:57;99020.47;;;29.21;37.10
50123;BME280;36021;48.670;6.184;2023-06-01T12:41:26;99014.78;;;29.21;37.11
50123;BME280;36021;48.670;6.184;2023-06-01T12:43:52;99024.41;;;29.37;36.97
50123;BME280;36021;48.670;6.184;2023-06-01T12:46:21;99005.84;;;29.26;36.57
50123;BME280;36021;48.670;6.184;2023-06-01T12:48:48;99003.53;;;29.10;36.48
50123;BME280;36021;48.670;6.184;2023-06-01T12:51:14;99007.44;;;28.82;35.85
50123;BME280;36021;48.670;6.184;2023-06-01T12:53:41;98997.84;;;29.10;37.25
50123;BME280;36021;48.670;6.184;2023-06-01T12:56:09;99002.13;;;29.32;37.17
50123;BME280;36021;48.670;6.184;2023-06-01T12:58:35;98998.34;;;29.46;36.32
50123;BME280;36021;48.670;6.184;2023-06-01T13:01:02;98996.72;;;29.45;36.03
50123;BME280;36021;48.670;6.184;2023-06-01T13:03:28;98988.47;;;29.58;36.22
50123;BME280;36021;48.670;6.184;2023-06-01T13:05:55;98983.53;;;29.62;36.42
50123;BME280;36021;48.670;6.184;2023-06-01T13:08:20;98989.06;;;29.76;36.52
50123;BME280;36021;48.670;6.184;2023-06-01T13:10:49;98976.03;;;29.78;36.25
50123;BME280;36021;48.670;6.184;2023-06-01T13:13:15;98974.63;;;29.97;36.84
50123;BME280;36021;48.670;6.184;2023-06-01T13:15:42;98982.53;;;30.13;36.34
50123;BME280;36021;48.670;6.184;2023-06-01T13:18:09;98975.03;;;30.26;35.32
50123;BME280;36021;48.670;6.184;2023-06-01T13:20:35;98983.78;;;30.42;34.12
50123;BME280;36021;48.670;6.184;2023-06-01T13:23:02;98979.47;;;30.57;34.17